Time,TemperatureF,DewpointF,PressureIn,WindDirection,WindDirectionDegrees,WindSpeedMPH,WindSpeedGustMPH,Humidity,HourlyPrecipIn,Conditions,Clouds,dailyrainin,SoftwareType,DateUTC
2013-10-13 14:22:00,53.0,32.0,29.99,North,5,8.0,22.0,44,0.00,,,0.00,,2013-10-13 21:22:00,
2013-10-13 14:55:00,53.0,34.0,29.99,NNW,332,5.0,21.0,48,0.00,,,0.00,,2013-10-13 21:55:00,
2013-10-13 15:24:00,53.0,33.0,30.00,North,5,11.0,19.0,47,0.00,,,0.00,,2013-10-13 22:24:00,
2013-10-13 15:53:00,53.0,33.0,30.01,North,355,10.0,17.0,47,0.00,,,0.00,,2013-10-13 22:53:00,
2013-10-13 16:21:00,52.0,33.0,30.00,NNW,328,16.0,30.0,49,0.00,,,0.00,,2013-10-13 23:21:00,
2013-10-13 16:52:00,52.0,34.0,30.01,North,360,12.0,20.0,50,0.00,,,0.00,,2013-10-13 23:52:00,
2013-10-13 17:21:00,51.0,34.0,30.01,NNE,19,9.0,17.0,51,0.00,,,0.00,,2013-10-14 00:21:00,
2013-10-13 17:52:00,50.0,34.0,30.02,WNW,300,5.0,15.0,53,0.00,,,0.00,,2013-10-14 00:52:00,
2013-10-13 18:21:00,50.0,32.0,30.03,NNE,14,5.0,13.0,49,0.00,,,0.00,,2013-10-14 01:21:00,
2013-10-13 18:52:00,49.0,31.0,30.01,NNE,28,17.0,22.0,49,0.00,,,0.00,,2013-10-14 01:52:00,
2013-10-13 19:21:00,49.0,31.0,30.01,NW,322,14.0,27.0,49,0.00,,,0.00,,2013-10-14 02:21:00,
2013-10-13 19:52:00,49.0,29.0,30.03,NNW,338,6.0,13.0,45,0.00,,,0.00,,2013-10-14 02:52:00,
2013-10-13 20:22:00,50.0,27.0,30.03,NNW,341,8.0,15.0,40,0.00,,,0.00,,2013-10-14 03:22:00,
2013-10-13 20:55:00,52.0,28.0,30.04,North,5,5.0,11.0,39,0.00,,,0.00,,2013-10-14 03:55:00,
2013-10-13 21:14:00,53.0,29.0,30.04,NNW,327,4.0,9.0,39,0.00,,,0.00,,2013-10-14 04:14:00,
2013-10-13 21:24:00,53.0,29.0,30.04,NNW,333,6.0,10.0,39,0.00,,,0.00,,2013-10-14 04:24:00,
2013-10-13 21:43:00,53.0,28.0,30.05,North,360,7.0,10.0,38,0.00,,,0.00,,2013-10-14 04:43:00,
2013-10-13 21:54:00,52.0,29.0,30.06,North,360,7.0,12.0,41,0.00,,,0.00,,2013-10-14 04:54:00,
2013-10-13 22:22:00,52.0,30.0,30.06,North,355,8.0,11.0,42,0.00,,,0.00,,2013-10-14 05:22:00,
2013-10-13 22:52:00,51.0,30.0,30.07,North,5,7.0,11.0,45,0.00,,,0.00,,2013-10-14 05:52:00,
2013-10-13 23:22:00,50.0,31.0,30.08,North,355,6.0,10.0,47,0.00,,,0.00,,2013-10-14 06:22:00,
2013-10-13 23:52:00,49.0,30.0,30.08,North,355,7.0,11.0,48,0.00,,,0.00,,2013-10-14 06:52:00,